Time;durP1;ratioP1;P1;durP2;ratioP2;P2;SDS_P1;SDS_P2;PMS_P1;PMS_P2;Temp;Humidity;BMP_temperature;BMP_pressure;BME280_temperature;BME280_humidity;BME280_pressure;Samples;Min_cycle;Max_cycle;Signal;HPM_P1;HPM_P2
2021/07/23 00:00:13;;;;;;;14.65;13.1;;;;;;;17.97;69.72852;95320.76;;;;
2021/07/23 00:01:15;;;;;;;14.65;13.1;;;;;;;17.97;69.72852;95320.76;;;;
2021/07/23 00:02:15;;;;;;;14.65;13.1;;;;;;;17.97;69.72852;95320.76;;;;
2021/07/23 00:03:16;;;;;;;14.65;13.1;;;;;;;17.97;69.72852;95320.76;;;;
2021/07/23 00:04:16;;;;;;;14.65;13.1;;;;;;;17.97;69.72852;95320.76;;;;
2021/07/23 00:05:17;;;;;;;14.65;13.1;;;;;;;17.97;69.72852;95320.76;;;;
2021/07/23 00:06:18;;;;;;;14.65;13.1;;;;;;;17.97;69.72852;95320.76;;;;
2021/07/23 00:07:18;;;;;;;15.15;13.2;;;;;;;17.65;70.375;95325.79;;;;
2021/07/23 00:08:19;;;;;;;15.15;13.2;;;;;;;17.65;70.375;95325.79;;;;
2021/07/23 00:09:19;;;;;;;15.15;13.2;;;;;;;17.65;70.375;95325.79;;;;
2021/07/23 00:10:20;;;;;;;15.15;13.2;;;;;;;17.65;70.375;95325.79;;;;
2021/07/23 00:11:20;;;;;;;15.15;13.2;;;;;;;17.65;70.375;95325.79;;;;
2021/07/23 00:12:21;;;;;;;15.15;13.2;;;;;;;17.65;70.375;95325.79;;;;
2021/07/23 00:13:21;;;;;;;15.15;13.2;;;;;;;17.65;70.375;95325.79;;;;
2021/07/23 00:14:22;;;;;;;15.15;13.2;;;;;;;17.65;70.375;95325.79;;;;
2021/07/23 00:15:22;;;;;;;15.15;13.2;;;;;;;17.65;70.375;95325.79;;;;
2021/07/23 00:16:23;;;;;;;15.15;13.2;;;;;;;17.65;70.375;95325.79;;;;
2021/07/23 00:17:24;;;;;;;16.7;13.7;;;;;;;17.31;71.00488;95315.22;;;;
2021/07/23 00:18:24;;;;;;;16.7;13.7;;;;;;;17.31;71.00488;95315.22;;;;
2021/07/23 00:19:25;;;;;;;16.7;13.7;;;;;;;17.31;71.00488;95315.22;;;;
2021/07/23 00:20:25;;;;;;;16.7;13.7;;;;;;;17.31;71.00488;95315.22;;;;
2021/07/23 00:21:26;;;;;;;16.7;13.7;;;;;;;17.31;71.00488;95315.22;;;;
2021/07/23 00:22:26;;;;;;;16.7;13.7;;;;;;;17.31;71.00488;95315.22;;;;
2021/07/23 00:23:27;;;;;;;16.7;13.7;;;;;;;17.31;71.00488;95315.22;;;;
2021/07/23 00:24:27;;;;;;;16.7;13.7;;;;;;;17.31;71.00488;95315.22;;;;
2021/07/23 00:25:28;;;;;;;16.7;13.7;;;;;;;17.31;71.00488;95315.22;;;;
2021/07/23 00:26:28;;;;;;;16.7;13.7;;;;;;;17.31;71.00488;95315.22;;;;
2021/07/23 00:27:29;;;;;;;16.7;13.7;;;;;;;17.31;71.00488;95315.22;;;;
2021/07/23 00:28:30;;;;;;;14.8;13;;;;;;;17;71.77051;95314.08;;;;
2021/07/23 00:29:30;;;;;;;14.8;13;;;;;;;17;71.77051;95314.08;;;;
2021/07/23 00:30:31;;;;;;;14.8;13;;;;;;;17;71.77051;95314.08;;;;
2021/07/23 00:31:31;;;;;;;14.8;13;;;;;;;17;71.77051;95314.08;;;;
2021/07/23 00:32:32;;;;;;;14.8;13;;;;;;;17;71.77051;95314.08;;;;
2021/07/23 00:33:34;;;;;;;14.8;13;;;;;;;17;71.77051;95314.08;;;;
2021/07/23 00:34:34;;;;;;;14.8;13;;;;;;;17;71.77051;95314.08;;;;
2021/07/23 00:35:35;;;;;;;14.8;13;;;;;;;17;71.77051;95314.08;;;;
2021/07/23 00:36:35;;;;;;;14.8;13;;;;;;;17;71.77051;95314.08;;;;
2021/07/23 00:37:36;;;;;;;14.8;13;;;;;;;17;71.77051;95314.08;;;;
2021/07/23 00:38:37;;;;;;;16.95;13.8;;;;;;;16.71;72.46289;95302.92;;;;
2021/07/23 00:39:37;;;;;;;16.95;13.8;;;;;;;16.71;72.46289;95302.92;;;;
2021/07/23 00:40:38;;;;;;;16.95;13.8;;;;;;;16.71;72.46289;95302.92;;;;
2021/07/23 00:41:38;;;;;;;16.95;13.8;;;;;;;16.71;72.46289;95302.92;;;;
2021/07/23 00:42:39;;;;;;;16.95;13.8;;;;;;;16.71;72.46289;95302.92;;;;
2021/07/23 00:43:40;;;;;;;16.95;13.8;;;;;;;16.71;72.46289;95302.92;;;;
2021/07/23 00:44:41;;;;;;;16.95;13.8;;;;;;;16.71;72.46289;95302.92;;;;
2021/07/23 00:45:41;;;;;;;16.95;13.8;;;;;;;16.71;72.46289;95302.92;;;;
2021/07/23 00:46:43;;;;;;;16.95;13.8;;;;;;;16.71;72.46289;95302.92;;;;
2021/07/23 00:47:44;;;;;;;16.95;13.8;;;;;;;16.71;72.46289;95302.92;;;;
2021/07/23 00:48:47;;;;;;;0;0;;;;;;;0;0;0;;;;
2021/07/23 00:49:48;;;;;;;0;0;;;;;;;0;0;0;;;;
2021/07/23 00:50:49;;;;;;;0;0;;;;;;;0;0;0;;;;
2021/07/23 00:51:50;;;;;;;0;0;;;;;;;0;0;0;;;;
2021/07/23 00:52:51;;;;;;;0;0;;;;;;;0;0;0;;;;
2021/07/23 00:53:52;;;;;;;0;0;;;;;;;0;0;0;;;;
2021/07/23 00:54:52;;;;;;;0;0;;;;;;;0;0;0;;;;
2021/07/23 00:55:53;;;;;;;0;0;;;;;;;0;0;0;;;;
2021/07/23 00:56:56;;;;;;;0;0;;;;;;;0;0;0;;;;
2021/07/23 00:57:57;;;;;;;0;0;;;;;;;0;0;0;;;;
2021/07/23 00:58:59;;;;;;;0;0;;;;;;;0;0;0;;;;
2021/07/23 01:00:00;;;;;;;0;0;;;;;;;0;0;0;;;;
2021/07/23 01:01:01;;;;;;;0;0;;;;;;;0;0;0;;;;
2021/07/23 01:02:03;;;;;;;0;0;;;;;;;0;0;0;;;;
2021/07/23 01:03:03;;;;;;;0;0;;;;;;;0;0;0;;;;
2021/07/23 01:04:04;;;;;;;0;0;;;;;;;0;0;0;;;;
2021/07/23 01:05:05;;;;;;;0;0;;;;;;;0;0;0;;;;
2021/07/23 01:06:05;;;;;;;0;0;;;;;;;0;0;0;;;;
2021/07/23 01:07:06;;;;;;;0;0;;;;;;;0;0;0;;;;
2021/07/23 01:08:07;;;;;;;0;0;;;;;;;0;0;0;;;;
2021/07/23 01:09:08;;;;;;;0;0;;;;;;;0;0;0;;;;
2021/07/23 01:10:08;;;;;;;0;0;;;;;;;0;0;0;;;;
2021/07/23 01:11:09;;;;;;;0;0;;;;;;;0;0;0;;;;
2021/07/23 01:12:12;;;;;;;0;0;;;;;;;0;0;0;;;;
2021/07/23 01:13:13;;;;;;;0;0;;;;;;;0;0;0;;;;
2021/07/23 01:14:13;;;;;;;0;0;;;;;;;0;0;0;;;;
2021/07/23 01:15:14;;;;;;;0;0;;;;;;;0;0;0;;;;
2021/07/23 01:16:14;;;;;;;0;0;;;;;;;0;0;0;;;;
2021/07/23 01:17:15;;;;;;;0;0;;;;;;;0;0;0;;;;
2021/07/23 01:18:16;;;;;;;0;0;;;;;;;0;0;0;;;;
2021/07/23 01:19:16;;;;;;;0;0;;;;;;;0;0;0;;;;
2021/07/23 01:20:18;;;;;;;0;0;;;;;;;0;0;0;;;;
2021/07/23 01:21:23;;;;;;;0;0;;;;;;;0;0;0;;;;
2021/07/23 01:22:25;;;;;;;0;0;;;;;;;0;0;0;;;;
2021/07/23 01:23:27;;;;;;;0;0;;;;;;;0;0;0;;;;
2021/07/23 01:24:29;;;;;;;0;0;;;;;;;0;0;0;;;;
2021/07/23 01:25:31;;;;;;;0;0;;;;;;;0;0;0;;;;
2021/07/23 01:26:34;;;;;;;0;0;;;;;;;0;0;0;;;;
2021/07/23 01:27:39;;;;;;;0;0;;;;;;;0;0;0;;;;
2021/07/23 01:28:40;;;;;;;0;0;;;;;;;0;0;0;;;;
2021/07/23 01:29:40;;;;;;;0;0;;;;;;;0;0;0;;;;
2021/07/23 01:30:41;;;;;;;0;0;;;;;;;0;0;0;;;;
2021/07/23 01:31:41;;;;;;;0;0;;;;;;;0;0;0;;;;
2021/07/23 01:32:42;;;;;;;0;0;;;;;;;0;0;0;;;;
2021/07/23 01:33:43;;;;;;;0;0;;;;;;;0;0;0;;;;
2021/07/23 01:34:43;;;;;;;0;0;;;;;;;0;0;0;;;;
2021/07/23 01:35:44;;;;;;;0;0;;;;;;;0;0;0;;;;
2021/07/23 01:36:45;;;;;;;0;0;;;;;;;0;0;0;;;;
2021/07/23 01:37:45;;;;;;;0;0;;;;;;;0;0;0;;;;
2021/07/23 01:38:46;;;;;;;0;0;;;;;;;0;0;0;;;;
2021/07/23 01:39:50;;;;;;;0;0;;;;;;;0;0;0;;;;
2021/07/23 01:40:53;;;;;;;0;0;;;;;;;0;0;0;;;;
2021/07/23 01:41:54;;;;;;;0;0;;;;;;;0;0;0;;;;
2021/07/23 01:42:55;;;;;;;0;0;;;;;;;0;0;0;;;;
2021/07/23 01:43:55;;;;;;;0;0;;;;;;;0;0;0;;;;
2021/07/23 01:44:56;;;;;;;0;0;;;;;;;0;0;0;;;;
2021/07/23 01:45:58;;;;;;;0;0;;;;;;;0;0;0;;;;
2021/07/23 01:46:58;;;;;;;0;0;;;;;;;0;0;0;;;;
2021/07/23 01:47:59;;;;;;;0;0;;;;;;;0;0;0;;;;
2021/07/23 01:48:59;;;;;;;0;0;;;;;;;0;0;0;;;;
2021/07/23 01:50:00;;;;;;;0;0;;;;;;;0;0;0;;;;
2021/07/23 01:51:00;;;;;;;0;0;;;;;;;0;0;0;;;;
2021/07/23 01:52:02;;;;;;;0;0;;;;;;;0;0;0;;;;
2021/07/23 01:53:04;;;;;;;0;0;;;;;;;0;0;0;;;;
2021/07/23 01:54:04;;;;;;;0;0;;;;;;;0;0;0;;;;
2021/07/23 01:55:05;;;;;;;0;0;;;;;;;0;0;0;;;;
2021/07/23 01:56:06;;;;;;;0;0;;;;;;;0;0;0;;;;
2021/07/23 01:57:06;;;;;;;0;0;;;;;;;0;0;0;;;;
2021/07/23 01:58:07;;;;;;;0;0;;;;;;;0;0;0;;;;
2021/07/23 01:59:09;;;;;;;0;0;;;;;;;0;0;0;;;;
2021/07/23 02:00:09;;;;;;;0;0;;;;;;;0;0;0;;;;
2021/07/23 02:01:11;;;;;;;0;0;;;;;;;0;0;0;;;;
2021/07/23 02:02:11;;;;;;;0;0;;;;;;;0;0;0;;;;
2021/07/23 02:03:12;;;;;;;0;0;;;;;;;0;0;0;;;;
2021/07/23 02:04:12;;;;;;;0;0;;;;;;;0;0;0;;;;
2021/07/23 02:05:13;;;;;;;0;0;;;;;;;0;0;0;;;;
2021/07/23 02:06:15;;;;;;;0;0;;;;;;;0;0;0;;;;
2021/07/23 02:07:16;;;;;;;0;0;;;;;;;0;0;0;;;;
2021/07/23 02:08:16;;;;;;;0;0;;;;;;;0;0;0;;;;
2021/07/23 02:09:17;;;;;;;0;0;;;;;;;0;0;0;;;;
2021/07/23 02:10:17;;;;;;;0;0;;;;;;;0;0;0;;;;
2021/07/23 02:11:18;;;;;;;0;0;;;;;;;0;0;0;;;;
2021/07/23 02:12:18;;;;;;;0;0;;;;;;;0;0;0;;;;
2021/07/23 02:13:19;;;;;;;0;0;;;;;;;0;0;0;;;;
2021/07/23 02:14:19;;;;;;;0;0;;;;;;;0;0;0;;;;
2021/07/23 02:15:20;;;;;;;0;0;;;;;;;0;0;0;;;;
2021/07/23 02:16:21;;;;;;;0;0;;;;;;;0;0;0;;;;
2021/07/23 02:17:22;;;;;;;0;0;;;;;;;0;0;0;;;;
2021/07/23 02:18:22;;;;;;;0;0;;;;;;;0;0;0;;;;
2021/07/23 02:19:23;;;;;;;0;0;;;;;;;0;0;0;;;;
2021/07/23 02:20:23;;;;;;;0;0;;;;;;;0;0;0;;;;
2021/07/23 02:21:24;;;;;;;0;0;;;;;;;0;0;0;;;;
2021/07/23 02:22:24;;;;;;;0;0;;;;;;;0;0;0;;;;
2021/07/23 02:23:25;;;;;;;0;0;;;;;;;0;0;0;;;;
2021/07/23 02:24:25;;;;;;;0;0;;;;;;;0;0;0;;;;
2021/07/23 02:25:26;;;;;;;0;0;;;;;;;0;0;0;;;;
2021/07/23 02:26:26;;;;;;;0;0;;;;;;;0;0;0;;;;
2021/07/23 02:27:32;;;;;;;0;0;;;;;;;0;0;0;;;;
2021/07/23 02:28:32;;;;;;;0;0;;;;;;;0;0;0;;;;
2021/07/23 02:29:32;;;;;;;0;0;;;;;;;0;0;0;;;;
2021/07/23 02:30:33;;;;;;;0;0;;;;;;;0;0;0;;;;
2021/07/23 02:31:34;;;;;;;0;0;;;;;;;0;0;0;;;;
2021/07/23 02:32:34;;;;;;;0;0;;;;;;;0;0;0;;;;
2021/07/23 02:33:34;;;;;;;0;0;;;;;;;0;0;0;;;;
2021/07/23 02:34:35;;;;;;;0;0;;;;;;;0;0;0;;;;
2021/07/23 02:35:36;;;;;;;0;0;;;;;;;0;0;0;;;;
2021/07/23 02:36:36;;;;;;;0;0;;;;;;;0;0;0;;;;
2021/07/23 02:37:38;;;;;;;0;0;;;;;;;0;0;0;;;;
2021/07/23 02:38:39;;;;;;;0;0;;;;;;;0;0;0;;;;
2021/07/23 02:39:39;;;;;;;0;0;;;;;;;0;0;0;;;;
2021/07/23 02:40:40;;;;;;;0;0;;;;;;;0;0;0;;;;
2021/07/23 02:41:40;;;;;;;0;0;;;;;;;0;0;0;;;;
2021/07/23 02:42:41;;;;;;;0;0;;;;;;;0;0;0;;;;
2021/07/23 02:43:43;;;;;;;0;0;;;;;;;0;0;0;;;;
2021/07/23 02:44:43;;;;;;;0;0;;;;;;;0;0;0;;;;
2021/07/23 02:45:44;;;;;;;0;0;;;;;;;0;0;0;;;;
2021/07/23 02:46:44;;;;;;;0;0;;;;;;;0;0;0;;;;
2021/07/23 02:47:45;;;;;;;0;0;;;;;;;0;0;0;;;;
2021/07/23 02:48:45;;;;;;;0;0;;;;;;;0;0;0;;;;
2021/07/23 02:49:46;;;;;;;0;0;;;;;;;0;0;0;;;;
2021/07/23 02:50:46;;;;;;;0;0;;;;;;;0;0;0;;;;
2021/07/23 02:51:47;;;;;;;0;0;;;;;;;0;0;0;;;;
2021/07/23 02:52:48;;;;;;;0;0;;;;;;;0;0;0;;;;
2021/07/23 02:53:48;;;;;;;0;0;;;;;;;0;0;0;;;;
2021/07/23 02:54:49;;;;;;;0;0;;;;;;;0;0;0;;;;
2021/07/23 02:55:49;;;;;;;0;0;;;;;;;0;0;0;;;;
2021/07/23 02:56:50;;;;;;;0;0;;;;;;;0;0;0;;;;
2021/07/23 02:57:50;;;;;;;0;0;;;;;;;0;0;0;;;;
2021/07/23 02:58:51;;;;;;;0;0;;;;;;;0;0;0;;;;
2021/07/23 02:59:52;;;;;;;0;0;;;;;;;0;0;0;;;;
2021/07/23 03:00:52;;;;;;;0;0;;;;;;;0;0;0;;;;
2021/07/23 03:01:53;;;;;;;0;0;;;;;;;0;0;0;;;;
2021/07/23 03:02:53;;;;;;;0;0;;;;;;;0;0;0;;;;
2021/07/23 03:03:54;;;;;;;0;0;;;;;;;0;0;0;;;;
2021/07/23 03:04:54;;;;;;;0;0;;;;;;;0;0;0;;;;
2021/07/23 03:05:55;;;;;;;0;0;;;;;;;0;0;0;;;;
2021/07/23 03:06:56;;;;;;;0;0;;;;;;;0;0;0;;;;
2021/07/23 03:07:57;;;;;;;0;0;;;;;;;0;0;0;;;;
2021/07/23 03:08:58;;;;;;;0;0;;;;;;;0;0;0;;;;
2021/07/23 03:09:58;;;;;;;0;0;;;;;;;0;0;0;;;;
2021/07/23 03:10:59;;;;;;;0;0;;;;;;;0;0;0;;;;
2021/07/23 03:12:02;;;;;;;0;0;;;;;;;0;0;0;;;;
2021/07/23 03:13:03;;;;;;;0;0;;;;;;;0;0;0;;;;
2021/07/23 03:14:03;;;;;;;0;0;;;;;;;0;0;0;;;;
2021/07/23 03:15:04;;;;;;;0;0;;;;;;;0;0;0;;;;
2021/07/23 03:16:09;;;;;;;0;0;;;;;;;0;0;0;;;;
2021/07/23 03:17:10;;;;;;;0;0;;;;;;;0;0;0;;;;
2021/07/23 03:18:10;;;;;;;0;0;;;;;;;0;0;0;;;;
2021/07/23 03:19:11;;;;;;;0;0;;;;;;;0;0;0;;;;
2021/07/23 03:20:11;;;;;;;0;0;;;;;;;0;0;0;;;;
2021/07/23 03:21:13;;;;;;;0;0;;;;;;;0;0;0;;;;
2021/07/23 03:22:13;;;;;;;0;0;;;;;;;0;0;0;;;;
2021/07/23 03:23:14;;;;;;;0;0;;;;;;;0;0;0;;;;
2021/07/23 03:24:14;;;;;;;0;0;;;;;;;0;0;0;;;;
2021/07/23 03:25:15;;;;;;;0;0;;;;;;;0;0;0;;;;
2021/07/23 03:26:15;;;;;;;0;0;;;;;;;0;0;0;;;;
2021/07/23 03:27:16;;;;;;;0;0;;;;;;;0;0;0;;;;
2021/07/23 03:28:16;;;;;;;0;0;;;;;;;0;0;0;;;;
2021/07/23 03:29:17;;;;;;;0;0;;;;;;;0;0;0;;;;
2021/07/23 03:30:17;;;;;;;0;0;;;;;;;0;0;0;;;;
2021/07/23 03:31:18;;;;;;;0;0;;;;;;;0;0;0;;;;
2021/07/23 03:32:19;;;;;;;0;0;;;;;;;0;0;0;;;;
2021/07/23 03:33:20;;;;;;;0;0;;;;;;;0;0;0;;;;
2021/07/23 03:34:20;;;;;;;0;0;;;;;;;0;0;0;;;;
2021/07/23 03:35:21;;;;;;;0;0;;;;;;;0;0;0;;;;
2021/07/23 03:36:21;;;;;;;0;0;;;;;;;0;0;0;;;;
2021/07/23 03:37:22;;;;;;;0;0;;;;;;;0;0;0;;;;
2021/07/23 03:38:22;;;;;;;0;0;;;;;;;0;0;0;;;;
2021/07/23 03:39:23;;;;;;;0;0;;;;;;;0;0;0;;;;
2021/07/23 03:40:23;;;;;;;0;0;;;;;;;0;0;0;;;;
2021/07/23 03:41:24;;;;;;;0;0;;;;;;;0;0;0;;;;
2021/07/23 03:42:24;;;;;;;0;0;;;;;;;0;0;0;;;;
2021/07/23 03:43:25;;;;;;;0;0;;;;;;;0;0;0;;;;
2021/07/23 03:44:26;;;;;;;0;0;;;;;;;0;0;0;;;;
2021/07/23 03:45:26;;;;;;;0;0;;;;;;;0;0;0;;;;
2021/07/23 03:46:27;;;;;;;0;0;;;;;;;0;0;0;;;;
2021/07/23 03:47:27;;;;;;;0;0;;;;;;;0;0;0;;;;
2021/07/23 03:48:28;;;;;;;0;0;;;;;;;0;0;0;;;;
2021/07/23 03:49:29;;;;;;;0;0;;;;;;;0;0;0;;;;
2021/07/23 03:50:29;;;;;;;0;0;;;;;;;0;0;0;;;;
2021/07/23 03:51:30;;;;;;;0;0;;;;;;;0;0;0;;;;
2021/07/23 03:52:30;;;;;;;0;0;;;;;;;0;0;0;;;;
2021/07/23 03:53:31;;;;;;;0;0;;;;;;;0;0;0;;;;
2021/07/23 03:54:31;;;;;;;0;0;;;;;;;0;0;0;;;;
2021/07/23 03:55:32;;;;;;;0;0;;;;;;;0;0;0;;;;
2021/07/23 03:56:32;;;;;;;0;0;;;;;;;0;0;0;;;;
2021/07/23 03:57:33;;;;;;;0;0;;;;;;;0;0;0;;;;
2021/07/23 03:58:33;;;;;;;0;0;;;;;;;0;0;0;;;;
2021/07/23 03:59:34;;;;;;;0;0;;;;;;;0;0;0;;;;
2021/07/23 04:00:35;;;;;;;0;0;;;;;;;0;0;0;;;;
2021/07/23 04:01:36;;;;;;;0;0;;;;;;;0;0;0;;;;
2021/07/23 04:02:38;;;;;;;0;0;;;;;;;0;0;0;;;;
2021/07/23 04:03:41;;;;;;;0;0;;;;;;;0;0;0;;;;
2021/07/23 04:04:41;;;;;;;0;0;;;;;;;0;0;0;;;;
2021/07/23 04:05:42;;;;;;;0;0;;;;;;;0;0;0;;;;
2021/07/23 04:06:44;;;;;;;0;0;;;;;;;0;0;0;;;;
2021/07/23 04:07:44;;;;;;;0;0;;;;;;;0;0;0;;;;
2021/07/23 04:08:45;;;;;;;0;0;;;;;;;0;0;0;;;;
2021/07/23 04:09:45;;;;;;;0;0;;;;;;;0;0;0;;;;
2021/07/23 04:10:46;;;;;;;0;0;;;;;;;0;0;0;;;;
2021/07/23 04:11:48;;;;;;;0;0;;;;;;;0;0;0;;;;
2021/07/23 04:12:49;;;;;;;0;0;;;;;;;0;0;0;;;;
2021/07/23 04:13:49;;;;;;;0;0;;;;;;;0;0;0;;;;
2021/07/23 04:14:50;;;;;;;0;0;;;;;;;0;0;0;;;;
2021/07/23 04:15:50;;;;;;;0;0;;;;;;;0;0;0;;;;
2021/07/23 04:16:51;;;;;;;0;0;;;;;;;0;0;0;;;;
2021/07/23 04:17:52;;;;;;;0;0;;;;;;;0;0;0;;;;
2021/07/23 04:18:52;;;;;;;0;0;;;;;;;0;0;0;;;;
2021/07/23 04:19:53;;;;;;;0;0;;;;;;;0;0;0;;;;
2021/07/23 04:20:53;;;;;;;0;0;;;;;;;0;0;0;;;;
2021/07/23 04:21:54;;;;;;;0;0;;;;;;;0;0;0;;;;
2021/07/23 04:22:54;;;;;;;0;0;;;;;;;0;0;0;;;;
2021/07/23 04:23:55;;;;;;;0;0;;;;;;;0;0;0;;;;
2021/07/23 04:24:55;;;;;;;0;0;;;;;;;0;0;0;;;;
2021/07/23 04:25:56;;;;;;;0;0;;;;;;;0;0;0;;;;
2021/07/23 04:26:57;;;;;;;0;0;;;;;;;0;0;0;;;;
2021/07/23 04:27:58;;;;;;;0;0;;;;;;;0;0;0;;;;
2021/07/23 04:28:59;;;;;;;0;0;;;;;;;0;0;0;;;;
2021/07/23 04:30:00;;;;;;;0;0;;;;;;;0;0;0;;;;
2021/07/23 04:31:00;;;;;;;0;0;;;;;;;0;0;0;;;;
2021/07/23 04:32:01;;;;;;;0;0;;;;;;;0;0;0;;;;
2021/07/23 04:33:02;;;;;;;0;0;;;;;;;0;0;0;;;;
2021/07/23 04:34:03;;;;;;;0;0;;;;;;;0;0;0;;;;
2021/07/23 04:35:03;;;;;;;0;0;;;;;;;0;0;0;;;;
2021/07/23 04:36:05;;;;;;;0;0;;;;;;;0;0;0;;;;
2021/07/23 04:37:05;;;;;;;0;0;;;;;;;0;0;0;;;;
2021/07/23 04:38:06;;;;;;;0;0;;;;;;;0;0;0;;;;
2021/07/23 04:39:06;;;;;;;0;0;;;;;;;0;0;0;;;;
2021/07/23 04:40:07;;;;;;;0;0;;;;;;;0;0;0;;;;
2021/07/23 04:41:08;;;;;;;0;0;;;;;;;0;0;0;;;;
2021/07/23 04:42:09;;;;;;;0;0;;;;;;;0;0;0;;;;
2021/07/23 04:43:10;;;;;;;0;0;;;;;;;0;0;0;;;;
2021/07/23 04:44:10;;;;;;;0;0;;;;;;;0;0;0;;;;
2021/07/23 04:45:11;;;;;;;0;0;;;;;;;0;0;0;;;;
2021/07/23 04:46:13;;;;;;;0;0;;;;;;;0;0;0;;;;
2021/07/23 04:47:14;;;;;;;0;0;;;;;;;0;0;0;;;;
2021/07/23 04:48:14;;;;;;;0;0;;;;;;;0;0;0;;;;
2021/07/23 04:49:14;;;;;;;0;0;;;;;;;0;0;0;;;;
2021/07/23 04:50:15;;;;;;;0;0;;;;;;;0;0;0;;;;
2021/07/23 04:51:15;;;;;;;0;0;;;;;;;0;0;0;;;;
2021/07/23 04:52:16;;;;;;;0;0;;;;;;;0;0;0;;;;
2021/07/23 04:53:17;;;;;;;0;0;;;;;;;0;0;0;;;;
2021/07/23 04:54:18;;;;;;;0;0;;;;;;;0;0;0;;;;
2021/07/23 04:55:18;;;;;;;0;0;;;;;;;0;0;0;;;;
2021/07/23 04:56:19;;;;;;;0;0;;;;;;;0;0;0;;;;
2021/07/23 04:57:26;;;;;;;0;0;;;;;;;0;0;0;;;;
2021/07/23 04:58:27;;;;;;;0;0;;;;;;;0;0;0;;;;
2021/07/23 04:59:27;;;;;;;0;0;;;;;;;0;0;0;;;;
2021/07/23 05:00:28;;;;;;;0;0;;;;;;;0;0;0;;;;
2021/07/23 05:01:28;;;;;;;0;0;;;;;;;0;0;0;;;;
2021/07/23 05:02:29;;;;;;;0;0;;;;;;;0;0;0;;;;
2021/07/23 05:03:30;;;;;;;0;0;;;;;;;0;0;0;;;;
2021/07/23 05:04:34;;;;;;;0;0;;;;;;;0;0;0;;;;
2021/07/23 05:05:36;;;;;;;0;0;;;;;;;0;0;0;;;;
2021/07/23 05:06:40;;;;;;;0;0;;;;;;;0;0;0;;;;
2021/07/23 05:07:41;;;;;;;0;0;;;;;;;0;0;0;;;;
2021/07/23 05:08:42;;;;;;;0;0;;;;;;;0;0;0;;;;
2021/07/23 05:09:42;;;;;;;0;0;;;;;;;0;0;0;;;;
2021/07/23 05:10:43;;;;;;;0;0;;;;;;;0;0;0;;;;
2021/07/23 05:11:44;;;;;;;0;0;;;;;;;0;0;0;;;;
2021/07/23 05:12:46;;;;;;;0;0;;;;;;;0;0;0;;;;
2021/07/23 05:13:46;;;;;;;0;0;;;;;;;0;0;0;;;;
2021/07/23 05:14:47;;;;;;;0;0;;;;;;;0;0;0;;;;
2021/07/23 05:15:47;;;;;;;0;0;;;;;;;0;0;0;;;;
2021/07/23 05:16:48;;;;;;;0;0;;;;;;;0;0;0;;;;
2021/07/23 05:17:49;;;;;;;0;0;;;;;;;0;0;0;;;;
2021/07/23 05:18:50;;;;;;;17.55;14.65;;;;;;;15.89;67.84082;95269.42;;;;
2021/07/23 05:19:51;;;;;;;17.55;14.65;;;;;;;15.89;67.84082;95269.42;;;;
2021/07/23 05:20:51;;;;;;;17.55;14.65;;;;;;;15.89;67.84082;95269.42;;;;
2021/07/23 05:21:52;;;;;;;17.55;14.65;;;;;;;15.89;67.84082;95269.42;;;;
2021/07/23 05:22:53;;;;;;;17.55;14.65;;;;;;;15.89;67.84082;95269.42;;;;
2021/07/23 05:23:54;;;;;;;17.55;14.65;;;;;;;15.89;67.84082;95269.42;;;;
2021/07/23 05:24:54;;;;;;;17.55;14.65;;;;;;;15.89;67.84082;95269.42;;;;
2021/07/23 05:25:55;;;;;;;17.55;14.65;;;;;;;15.89;67.84082;95269.42;;;;
2021/07/23 05:26:57;;;;;;;17.55;14.65;;;;;;;15.89;67.84082;95269.42;;;;
2021/07/23 05:27:59;;;;;;;17.55;14.65;;;;;;;15.89;67.84082;95269.42;;;;
2021/07/23 05:29:00;;;;;;;17.55;14.65;;;;;;;15.89;67.84082;95269.42;;;;
2021/07/23 05:30:01;;;;;;;17.5;15;;;;;;;16.34;69.60254;95271.38;;;;
2021/07/23 05:31:02;;;;;;;17.5;15;;;;;;;16.34;69.60254;95271.38;;;;
2021/07/23 05:32:02;;;;;;;17.5;15;;;;;;;16.34;69.60254;95271.38;;;;
2021/07/23 05:33:04;;;;;;;17.5;15;;;;;;;16.34;69.60254;95271.38;;;;
2021/07/23 05:34:04;;;;;;;17.5;15;;;;;;;16.34;69.60254;95271.38;;;;
2021/07/23 05:35:05;;;;;;;17.5;15;;;;;;;16.34;69.60254;95271.38;;;;
2021/07/23 05:36:07;;;;;;;17.5;15;;;;;;;16.34;69.60254;95271.38;;;;
2021/07/23 05:37:07;;;;;;;17.5;15;;;;;;;16.34;69.60254;95271.38;;;;
2021/07/23 05:38:08;;;;;;;17.5;15;;;;;;;16.34;69.60254;95271.38;;;;
2021/07/23 05:39:13;;;;;;;17.5;15;;;;;;;16.34;69.60254;95271.38;;;;
2021/07/23 05:40:16;;;;;;;18.85;15.35;;;;;;;16.85;70.75879;95273.58;;;;
2021/07/23 05:41:16;;;;;;;18.85;15.35;;;;;;;16.85;70.75879;95273.58;;;;
2021/07/23 05:42:17;;;;;;;18.85;15.35;;;;;;;16.85;70.75879;95273.58;;;;
2021/07/23 05:43:18;;;;;;;18.85;15.35;;;;;;;16.85;70.75879;95273.58;;;;
2021/07/23 05:44:18;;;;;;;18.85;15.35;;;;;;;16.85;70.75879;95273.58;;;;
2021/07/23 05:45:19;;;;;;;18.85;15.35;;;;;;;16.85;70.75879;95273.58;;;;
2021/07/23 05:46:19;;;;;;;18.85;15.35;;;;;;;16.85;70.75879;95273.58;;;;
2021/07/23 05:47:20;;;;;;;18.85;15.35;;;;;;;16.85;70.75879;95273.58;;;;
2021/07/23 05:48:20;;;;;;;18.85;15.35;;;;;;;16.85;70.75879;95273.58;;;;
2021/07/23 05:49:21;;;;;;;18.85;15.35;;;;;;;16.85;70.75879;95273.58;;;;
2021/07/23 05:50:21;;;;;;;18.85;15.35;;;;;;;16.85;70.75879;95273.58;;;;
2021/07/23 05:51:22;;;;;;;19.55;15.35;;;;;;;17.4;71.67285;95273.02;;;;
2021/07/23 05:52:22;;;;;;;19.55;15.35;;;;;;;17.4;71.67285;95273.02;;;;
2021/07/23 05:53:23;;;;;;;19.55;15.35;;;;;;;17.4;71.67285;95273.02;;;;
2021/07/23 05:54:23;;;;;;;19.55;15.35;;;;;;;17.4;71.67285;95273.02;;;;
2021/07/23 05:55:24;;;;;;;19.55;15.35;;;;;;;17.4;71.67285;95273.02;;;;
2021/07/23 05:56:24;;;;;;;19.55;15.35;;;;;;;17.4;71.67285;95273.02;;;;
2021/07/23 05:57:25;;;;;;;19.55;15.35;;;;;;;17.4;71.67285;95273.02;;;;
2021/07/23 05:58:26;;;;;;;19.55;15.35;;;;;;;17.4;71.67285;95273.02;;;;
2021/07/23 05:59:27;;;;;;;19.55;15.35;;;;;;;17.4;71.67285;95273.02;;;;
2021/07/23 06:00:27;;;;;;;19.55;15.35;;;;;;;17.4;71.67285;95273.02;;;;
2021/07/23 06:01:28;;;;;;;18.4;15.4;;;;;;;17.95;72.24219;95275.55;;;;
2021/07/23 06:02:29;;;;;;;18.4;15.4;;;;;;;17.95;72.24219;95275.55;;;;
2021/07/23 06:03:29;;;;;;;18.4;15.4;;;;;;;17.95;72.24219;95275.55;;;;
2021/07/23 06:04:30;;;;;;;18.4;15.4;;;;;;;17.95;72.24219;95275.55;;;;
2021/07/23 06:05:30;;;;;;;18.4;15.4;;;;;;;17.95;72.24219;95275.55;;;;
2021/07/23 06:06:31;;;;;;;18.4;15.4;;;;;;;17.95;72.24219;95275.55;;;;
2021/07/23 06:07:32;;;;;;;18.4;15.4;;;;;;;17.95;72.24219;95275.55;;;;
2021/07/23 06:08:32;;;;;;;18.4;15.4;;;;;;;17.95;72.24219;95275.55;;;;
2021/07/23 06:09:33;;;;;;;18.4;15.4;;;;;;;17.95;72.24219;95275.55;;;;
2021/07/23 06:10:33;;;;;;;18.4;15.4;;;;;;;17.95;72.24219;95275.55;;;;
2021/07/23 06:11:34;;;;;;;18.4;15.4;;;;;;;17.95;72.24219;95275.55;;;;
2021/07/23 06:12:38;;;;;;;17.75;14.25;;;;;;;18.55;72.6543;95266.13;;;;
2021/07/23 06:13:38;;;;;;;17.75;14.25;;;;;;;18.55;72.6543;95266.13;;;;
2021/07/23 06:14:39;;;;;;;17.75;14.25;;;;;;;18.55;72.6543;95266.13;;;;
2021/07/23 06:15:39;;;;;;;17.75;14.25;;;;;;;18.55;72.6543;95266.13;;;;
2021/07/23 06:16:41;;;;;;;17.75;14.25;;;;;;;18.55;72.6543;95266.13;;;;
2021/07/23 06:17:41;;;;;;;17.75;14.25;;;;;;;18.55;72.6543;95266.13;;;;
2021/07/23 06:18:42;;;;;;;17.75;14.25;;;;;;;18.55;72.6543;95266.13;;;;
2021/07/23 06:19:42;;;;;;;17.75;14.25;;;;;;;18.55;72.6543;95266.13;;;;
2021/07/23 06:20:43;;;;;;;17.75;14.25;;;;;;;18.55;72.6543;95266.13;;;;
2021/07/23 06:21:43;;;;;;;17.75;14.25;;;;;;;18.55;72.6543;95266.13;;;;
2021/07/23 06:22:44;;;;;;;18.2;14.2;;;;;;;19.18;72.64844;95280.05;;;;
2021/07/23 06:23:44;;;;;;;18.2;14.2;;;;;;;19.18;72.64844;95280.05;;;;
2021/07/23 06:24:45;;;;;;;18.2;14.2;;;;;;;19.18;72.64844;95280.05;;;;
2021/07/23 06:25:45;;;;;;;18.2;14.2;;;;;;;19.18;72.64844;95280.05;;;;
2021/07/23 06:26:46;;;;;;;18.2;14.2;;;;;;;19.18;72.64844;95280.05;;;;
2021/07/23 06:27:46;;;;;;;18.2;14.2;;;;;;;19.18;72.64844;95280.05;;;;
2021/07/23 06:28:48;;;;;;;18.2;14.2;;;;;;;19.18;72.64844;95280.05;;;;
2021/07/23 06:29:49;;;;;;;18.2;14.2;;;;;;;19.18;72.64844;95280.05;;;;
2021/07/23 06:30:50;;;;;;;18.2;14.2;;;;;;;19.18;72.64844;95280.05;;;;
2021/07/23 06:31:50;;;;;;;18.2;14.2;;;;;;;19.18;72.64844;95280.05;;;;
2021/07/23 06:32:51;;;;;;;18.2;14.2;;;;;;;19.18;72.64844;95280.05;;;;
2021/07/23 06:33:51;;;;;;;15.95;13.95;;;;;;;19.91;72.47168;95283.34;;;;
2021/07/23 06:34:52;;;;;;;15.95;13.95;;;;;;;19.91;72.47168;95283.34;;;;
2021/07/23 06:35:52;;;;;;;15.95;13.95;;;;;;;19.91;72.47168;95283.34;;;;
2021/07/23 06:36:53;;;;;;;15.95;13.95;;;;;;;19.91;72.47168;95283.34;;;;
2021/07/23 06:37:53;;;;;;;15.95;13.95;;;;;;;19.91;72.47168;95283.34;;;;
2021/07/23 06:38:54;;;;;;;15.95;13.95;;;;;;;19.91;72.47168;95283.34;;;;
2021/07/23 06:39:54;;;;;;;15.95;13.95;;;;;;;19.91;72.47168;95283.34;;;;
2021/07/23 06:40:55;;;;;;;15.95;13.95;;;;;;;19.91;72.47168;95283.34;;;;
2021/07/23 06:41:56;;;;;;;15.95;13.95;;;;;;;19.91;72.47168;95283.34;;;;
2021/07/23 06:42:58;;;;;;;15.95;13.95;;;;;;;19.91;72.47168;95283.34;;;;
2021/07/23 06:43:59;;;;;;;16.05;14.35;;;;;;;21.03;71.69824;95284.72;;;;
2021/07/23 06:44:59;;;;;;;16.05;14.35;;;;;;;21.03;71.69824;95284.72;;;;
2021/07/23 06:46:01;;;;;;;16.05;14.35;;;;;;;21.03;71.69824;95284.72;;;;
2021/07/23 06:47:01;;;;;;;16.05;14.35;;;;;;;21.03;71.69824;95284.72;;;;
2021/07/23 06:48:02;;;;;;;16.05;14.35;;;;;;;21.03;71.69824;95284.72;;;;
2021/07/23 06:49:03;;;;;;;16.05;14.35;;;;;;;21.03;71.69824;95284.72;;;;
2021/07/23 06:50:03;;;;;;;16.05;14.35;;;;;;;21.03;71.69824;95284.72;;;;
2021/07/23 06:51:04;;;;;;;16.05;14.35;;;;;;;21.03;71.69824;95284.72;;;;
2021/07/23 06:52:05;;;;;;;16.05;14.35;;;;;;;21.03;71.69824;95284.72;;;;
2021/07/23 06:53:06;;;;;;;16.05;14.35;;;;;;;21.03;71.69824;95284.72;;;;
2021/07/23 06:54:07;;;;;;;16.05;14.35;;;;;;;21.03;71.69824;95284.72;;;;
2021/07/23 06:55:08;;;;;;;15.5;13.85;;;;;;;22.89;68.89063;95283.98;;;;
2021/07/23 06:56:09;;;;;;;15.5;13.85;;;;;;;22.89;68.89063;95283.98;;;;
2021/07/23 06:57:10;;;;;;;15.5;13.85;;;;;;;22.89;68.89063;95283.98;;;;
2021/07/23 06:58:10;;;;;;;15.5;13.85;;;;;;;22.89;68.89063;95283.98;;;;
2021/07/23 06:59:11;;;;;;;15.5;13.85;;;;;;;22.89;68.89063;95283.98;;;;
2021/07/23 07:00:11;;;;;;;15.5;13.85;;;;;;;22.89;68.89063;95283.98;;;;
2021/07/23 07:01:12;;;;;;;15.5;13.85;;;;;;;22.89;68.89063;95283.98;;;;
2021/07/23 07:02:13;;;;;;;15.5;13.85;;;;;;;22.89;68.89063;95283.98;;;;
2021/07/23 07:03:13;;;;;;;15.5;13.85;;;;;;;22.89;68.89063;95283.98;;;;
2021/07/23 07:04:14;;;;;;;15.5;13.85;;;;;;;22.89;68.89063;95283.98;;;;
2021/07/23 07:05:14;;;;;;;15.5;13.85;;;;;;;22.89;68.89063;95283.98;;;;
2021/07/23 07:06:15;;;;;;;15.45;13.65;;;;;;;24.54;66.70898;95287.44;;;;
2021/07/23 07:07:16;;;;;;;15.45;13.65;;;;;;;24.54;66.70898;95287.44;;;;
2021/07/23 07:08:16;;;;;;;15.45;13.65;;;;;;;24.54;66.70898;95287.44;;;;
2021/07/23 07:09:17;;;;;;;15.45;13.65;;;;;;;24.54;66.70898;95287.44;;;;
2021/07/23 07:10:18;;;;;;;15.45;13.65;;;;;;;24.54;66.70898;95287.44;;;;
2021/07/23 07:11:18;;;;;;;15.45;13.65;;;;;;;24.54;66.70898;95287.44;;;;
2021/07/23 07:12:19;;;;;;;15.45;13.65;;;;;;;24.54;66.70898;95287.44;;;;
2021/07/23 07:13:19;;;;;;;15.45;13.65;;;;;;;24.54;66.70898;95287.44;;;;
2021/07/23 07:14:22;;;;;;;15.45;13.65;;;;;;;24.54;66.70898;95287.44;;;;
2021/07/23 07:15:23;;;;;;;15.45;13.65;;;;;;;24.54;66.70898;95287.44;;;;